createdAt,value
2023-01-04T00:02:29.718Z,75.74
2023-01-04T00:05:35.920Z,75.30
2023-01-04T00:08:43.423Z,76.03
2023-01-04T00:11:49.614Z,77.11
2023-01-04T00:14:59.227Z,76.53
2023-01-04T00:18:05.901Z,76.56
2023-01-04T00:21:16.239Z,76.99
2023-01-04T00:24:22.823Z,77.86
2023-01-04T00:27:29.686Z,77.45
2023-01-04T00:30:38.416Z,75.87
2023-01-04T00:33:46.040Z,77.24
2023-01-04T00:36:52.669Z,77.40
2023-01-04T00:39:59.588Z,77.80
2023-01-04T00:43:05.661Z,78.54
2023-01-04T00:46:15.200Z,78.50
2023-01-04T00:49:21.267Z,78.65
2023-01-04T00:52:28.336Z,78.61
2023-01-04T00:55:34.524Z,79.05
2023-01-04T00:58:41.475Z,78.76
2023-01-04T01:01:51.876Z,78.31
2023-01-04T01:04:58.915Z,77.19
2023-01-04T01:08:24.810Z,76.89
2023-01-04T01:11:32.693Z,78.00
2023-01-04T01:14:38.754Z,78.93
2023-01-04T01:17:48.301Z,79.30
2023-01-04T01:20:54.336Z,79.68
2023-01-04T01:24:02.231Z,78.90
2023-01-04T01:27:08.357Z,78.37
2023-01-04T01:30:16.228Z,77.95
2023-01-04T01:33:25.039Z,77.96
2023-01-04T01:36:32.027Z,77.43
2023-01-04T01:39:38.127Z,77.29
2023-01-04T01:42:44.992Z,76.78
2023-01-04T01:45:55.668Z,76.87
2023-01-04T01:49:15.200Z,76.71
2023-01-04T01:52:30.504Z,77.06
2023-01-04T01:55:40.100Z,76.77
2023-01-04T01:58:55.924Z,77.33
2023-01-04T02:02:02.878Z,77.51
2023-01-04T02:05:13.472Z,77.45
2023-01-04T02:08:25.487Z,77.66
2023-01-04T02:11:32.611Z,78.03
2023-01-04T02:14:38.723Z,78.05
2023-01-04T02:17:58.332Z,77.92
2023-01-04T02:21:17.815Z,77.80
2023-01-04T02:24:58.038Z,77.55
2023-01-04T02:28:14.668Z,77.51
2023-01-04T02:31:40.493Z,77.10
2023-01-04T02:34:59.245Z,76.78
2023-01-04T02:38:23.875Z,76.91
2023-01-04T02:41:37.413Z,76.48
2023-01-04T02:44:53.648Z,76.57
2023-01-04T02:48:19.754Z,76.61
2023-01-04T02:51:34.041Z,76.57
2023-01-04T02:54:42.500Z,77.13
2023-01-04T02:58:08.996Z,77.34
2023-01-04T03:01:45.655Z,77.02
2023-01-04T03:05:21.956Z,77.62
2023-01-04T03:08:37.629Z,77.71
2023-01-04T03:12:04.205Z,77.22
2023-01-04T03:15:20.219Z,77.51
2023-01-04T03:18:34.279Z,78.47
2023-01-04T03:21:49.396Z,78.97
2023-01-04T03:25:10.385Z,79.43
2023-01-04T03:28:36.047Z,80.34
2023-01-04T03:32:04.867Z,80.36
2023-01-04T03:35:23.685Z,80.92
2023-01-04T03:39:04.767Z,80.91
2023-01-04T03:42:35.957Z,81.95
2023-01-04T03:46:04.885Z,82.20
2023-01-04T03:49:25.942Z,83.30
2023-01-04T03:52:38.915Z,83.36
2023-01-04T03:55:51.841Z,83.67
2023-01-04T03:58:59.200Z,84.23
2023-01-04T04:02:08.558Z,84.11
2023-01-04T04:05:35.409Z,84.42
2023-01-04T04:08:41.429Z,84.16
2023-01-04T04:11:51.110Z,84.14
2023-01-04T04:14:57.170Z,83.83
2023-01-04T04:18:04.159Z,83.99
2023-01-04T04:21:10.560Z,84.17
2023-01-04T04:24:23.365Z,83.73
2023-01-04T04:27:32.016Z,83.48
2023-01-04T04:30:40.945Z,83.78
2023-01-04T04:33:47.108Z,84.47
2023-01-04T04:36:54.020Z,85.25
2023-01-04T04:40:00.057Z,85.44
2023-01-04T04:43:09.545Z,85.29
2023-01-04T04:46:15.761Z,85.12
2023-01-04T04:49:22.967Z,85.23
2023-01-04T04:52:29.042Z,84.86
2023-01-04T04:55:35.957Z,84.35
2023-01-04T04:58:44.897Z,84.48
2023-01-04T05:01:52.161Z,84.11
2023-01-04T05:04:58.309Z,83.61
2023-01-04T05:08:05.312Z,83.06
2023-01-04T05:11:14.218Z,82.36
2023-01-04T05:14:21.220Z,82.11
2023-01-04T05:17:27.226Z,81.40
2023-01-04T05:20:34.558Z,81.17
2023-01-04T05:23:40.696Z,81.07
2023-01-04T05:26:47.553Z,80.57
2023-01-04T05:30:08.617Z,80.26
2023-01-04T05:33:15.780Z,80.16
2023-01-04T05:36:21.958Z,79.81
2023-01-04T05:39:28.873Z,79.80
2023-01-04T05:42:34.843Z,79.28
2023-01-04T05:45:46.997Z,79.04
2023-01-04T05:48:53.080Z,78.74
2023-01-04T05:52:00.733Z,78.39
2023-01-04T05:55:07.968Z,78.24
2023-01-04T05:58:15.469Z,78.21
2023-01-04T06:01:24.149Z,78.15
2023-01-04T06:04:31.718Z,78.04
2023-01-04T06:07:37.812Z,77.95
2023-01-04T06:10:44.695Z,78.04
2023-01-04T06:13:50.845Z,78.25
2023-01-04T06:17:00.548Z,78.24
2023-01-04T06:20:09.608Z,78.75
2023-01-04T06:23:16.636Z,78.81
2023-01-04T06:26:23.271Z,78.67
2023-01-04T06:29:31.228Z,79.08
2023-01-04T06:32:40.515Z,79.08
2023-01-04T06:35:47.480Z,78.81
2023-01-04T06:38:53.555Z,78.73
2023-01-04T06:42:06.252Z,78.15
2023-01-04T06:45:14.526Z,77.94
2023-01-04T06:48:24.492Z,78.38
2023-01-04T06:51:30.588Z,78.60
2023-01-04T06:54:37.467Z,79.21
2023-01-04T06:57:43.670Z,79.18
2023-01-04T07:00:50.774Z,79.32
2023-01-04T07:03:59.413Z,79.01
2023-01-04T07:07:06.342Z,79.00
2023-01-04T07:10:13.584Z,78.58
2023-01-04T07:13:21.308Z,78.57
2023-01-04T07:16:27.435Z,78.32
2023-01-04T07:19:38.113Z,78.42
2023-01-04T07:22:44.105Z,78.05
2023-01-04T07:25:50.987Z,78.17
2023-01-04T07:29:09.437Z,78.14
2023-01-04T07:32:16.583Z,78.30
2023-01-04T07:35:26.566Z,79.04
2023-01-04T07:38:33.632Z,78.61
2023-01-04T07:41:40.869Z,78.63
2023-01-04T07:44:48.991Z,78.66
2023-01-04T07:47:55.138Z,78.36
2023-01-04T07:51:04.705Z,78.30
2023-01-04T07:54:12.370Z,77.72
2023-01-04T07:57:19.428Z,77.40
2023-01-04T08:00:25.814Z,76.54
2023-01-04T08:03:32.708Z,76.26
2023-01-04T08:06:43.153Z,75.85
2023-01-04T08:09:50.101Z,75.20
2023-01-04T08:12:56.186Z,74.81
2023-01-04T08:16:03.280Z,74.01
2023-01-04T08:19:15.248Z,73.57
2023-01-04T08:22:24.727Z,72.49
2023-01-04T08:25:30.848Z,71.70
2023-01-04T08:28:38.213Z,70.16
2023-01-04T08:31:45.033Z,68.90
2023-01-04T08:34:52.085Z,67.38
2023-01-04T08:38:28.416Z,66.80
2023-01-04T08:44:58.917Z,65.12
2023-01-04T08:48:07.190Z,65.57
2023-01-04T08:51:16.283Z,65.20
2023-01-04T08:54:25.866Z,64.20
2023-01-04T08:57:31.984Z,63.43
2023-01-04T09:00:38.971Z,63.10
2023-01-04T09:03:45.068Z,60.42
2023-01-04T09:06:51.970Z,61.04
2023-01-04T09:10:01.115Z,61.38
2023-01-04T09:13:08.492Z,61.61
2023-01-04T09:16:22.691Z,61.79
2023-01-04T09:19:29.747Z,60.07
2023-01-04T09:22:35.780Z,60.42
2023-01-04T09:25:45.785Z,61.89
2023-01-04T09:28:52.784Z,60.83
2023-01-04T09:31:59.827Z,61.52
2023-01-04T09:35:06.023Z,60.90
2023-01-04T09:38:13.015Z,59.61
2023-01-04T09:41:30.704Z,59.75
2023-01-04T09:48:25.532Z,58.90
2023-01-04T09:51:42.763Z,58.66
2023-01-04T09:55:02.789Z,58.08
2023-01-04T09:58:36.220Z,56.53
2023-01-04T10:01:54.031Z,55.50
2023-01-04T10:05:06.767Z,55.83
2023-01-04T10:08:21.300Z,56.56
2023-01-04T10:11:53.736Z,56.36
2023-01-04T10:15:32.477Z,56.86
2023-01-04T10:20:07.960Z,56.95
2023-01-04T10:22:34.852Z,56.83
2023-01-04T10:25:57.989Z,55.34
2023-01-04T10:29:50.438Z,55.73
2023-01-04T10:33:15.164Z,54.90
2023-01-04T10:36:28.032Z,55.55
2023-01-04T10:39:39.269Z,58.33
2023-01-04T10:43:02.058Z,58.66
2023-01-04T10:46:20.872Z,58.52
2023-01-04T10:49:45.743Z,58.67
2023-01-04T10:53:07.267Z,60.73
2023-01-04T10:56:27.428Z,60.06
2023-01-04T10:59:48.623Z,61.70
2023-01-04T11:03:10.754Z,62.03
2023-01-04T11:06:30.363Z,61.36
2023-01-04T11:09:46.657Z,62.09
2023-01-04T11:12:53.726Z,62.05
2023-01-04T11:16:01.700Z,62.89
2023-01-04T11:19:12.551Z,63.64
2023-01-04T11:22:31.297Z,63.35
2023-01-04T11:25:55.581Z,64.04
2023-01-04T11:29:08.939Z,64.19
2023-01-04T11:32:27.590Z,64.88
2023-01-04T11:35:46.310Z,64.61
2023-01-04T11:39:00.187Z,65.08
2023-01-04T11:42:08.777Z,64.17
2023-01-04T11:45:24.518Z,64.09
2023-01-04T11:48:41.678Z,63.79
2023-01-04T11:51:48.551Z,63.72
2023-01-04T11:54:57.443Z,63.82
2023-01-04T11:58:16.988Z,63.88
2023-01-04T12:01:27.509Z,64.22
2023-01-04T12:04:35.521Z,63.54
2023-01-04T12:07:42.337Z,62.51
2023-01-04T12:10:52.560Z,63.25
2023-01-04T12:14:00.305Z,63.57
2023-01-04T12:17:17.102Z,63.68
2023-01-04T12:20:30.135Z,63.72
2023-01-04T12:23:37.783Z,64.21
2023-01-04T12:26:47.718Z,64.86
2023-01-04T12:30:06.112Z,64.84
2023-01-04T12:33:42.579Z,64.84
2023-01-04T12:37:05.613Z,64.91
2023-01-04T12:40:57.087Z,64.66
2023-01-04T12:44:56.483Z,64.22
2023-01-04T12:48:52.549Z,63.90
2023-01-04T12:53:28.214Z,63.65
2023-01-04T12:56:12.747Z,63.09
2023-01-04T12:59:38.628Z,63.23
2023-01-04T13:02:48.383Z,62.97
2023-01-04T13:06:04.693Z,63.00
2023-01-04T13:09:25.167Z,62.60
2023-01-04T13:13:01.976Z,62.10
2023-01-04T13:16:25.663Z,62.55
2023-01-04T13:19:34.464Z,61.33
2023-01-04T13:22:57.169Z,61.37
2023-01-04T13:26:32.572Z,61.44
2023-01-04T13:29:40.095Z,62.58
2023-01-04T13:33:24.425Z,63.33
2023-01-04T13:36:15.277Z,64.14
2023-01-04T13:39:27.526Z,64.92
2023-01-04T13:42:39.367Z,65.61
2023-01-04T13:46:14.448Z,65.54
2023-01-04T13:49:21.175Z,65.59
2023-01-04T13:56:02.494Z,65.46
2023-01-04T13:59:12.269Z,65.19
2023-01-04T14:02:24.557Z,65.29
2023-01-04T14:05:31.644Z,65.08
2023-01-04T14:08:44.045Z,64.82
2023-01-04T14:15:33.988Z,64.79
2023-01-04T14:18:41.838Z,65.04
2023-01-04T14:21:49.631Z,64.90
2023-01-04T14:25:09.399Z,65.40
2023-01-04T14:28:49.555Z,65.13
2023-01-04T14:31:57.139Z,65.59
2023-01-04T14:35:17.979Z,65.58
2023-01-04T14:38:25.097Z,66.17
2023-01-04T14:41:38.041Z,66.57
2023-01-04T14:44:47.666Z,66.56
2023-01-04T14:47:53.835Z,66.42
2023-01-04T14:51:03.687Z,66.87
2023-01-04T14:54:11.059Z,66.86
2023-01-04T14:57:18.494Z,66.38
2023-01-04T15:00:27.191Z,66.62
2023-01-04T15:03:34.279Z,66.68
2023-01-04T15:06:50.375Z,68.44
2023-01-04T15:09:57.331Z,69.02
2023-01-04T15:13:04.593Z,69.92
2023-01-04T15:16:18.011Z,70.98
2023-01-04T15:19:24.159Z,71.31
2023-01-04T15:22:31.245Z,72.68
2023-01-04T15:25:37.804Z,73.60
2023-01-04T15:28:44.683Z,74.47
2023-01-04T15:31:53.460Z,74.79
2023-01-04T15:35:00.287Z,76.29
2023-01-04T15:38:06.825Z,76.10
2023-01-04T15:41:38.417Z,76.64
2023-01-04T15:44:46.095Z,77.06
2023-01-04T15:47:57.925Z,78.14
2023-01-04T15:51:07.987Z,78.98
2023-01-04T15:54:15.429Z,80.02
2023-01-04T15:57:21.499Z,80.59
2023-01-04T16:00:28.716Z,80.79
2023-01-04T16:03:38.135Z,81.27
2023-01-04T16:06:45.120Z,81.23
2023-01-04T16:09:51.251Z,81.19
2023-01-04T16:12:58.261Z,80.65
2023-01-04T16:16:04.500Z,81.26
2023-01-04T16:19:14.044Z,81.02
2023-01-04T16:22:20.247Z,81.17
2023-01-04T16:25:27.213Z,81.21
2023-01-04T16:28:33.177Z,81.03
2023-01-04T16:31:43.212Z,80.88
2023-01-04T16:34:53.881Z,80.85
2023-01-04T16:38:02.436Z,80.69
2023-01-04T16:41:10.652Z,81.25
2023-01-04T16:44:17.648Z,81.19
2023-01-04T16:47:23.972Z,81.70
2023-01-04T16:50:33.589Z,82.17
2023-01-04T16:53:40.900Z,82.26
2023-01-04T16:56:50.286Z,81.94
2023-01-04T16:59:56.373Z,81.54
2023-01-04T17:03:03.429Z,81.12
2023-01-04T17:06:16.882Z,80.77
2023-01-04T17:09:24.757Z,80.95
2023-01-04T17:12:48.362Z,80.52
2023-01-04T17:15:55.972Z,79.91
2023-01-04T17:19:02.865Z,79.93
2023-01-04T17:22:12.332Z,79.38
2023-01-04T17:25:18.410Z,79.30
2023-01-04T17:28:25.463Z,78.97
2023-01-04T17:31:35.418Z,78.72
2023-01-04T17:34:42.527Z,78.37
2023-01-04T17:37:51.155Z,77.85
2023-01-04T17:40:57.961Z,77.06
2023-01-04T17:44:06.961Z,76.93
2023-01-04T17:47:13.874Z,76.66
2023-01-04T17:50:20.736Z,76.53
2023-01-04T17:53:30.228Z,75.89
2023-01-04T17:56:37.890Z,75.27
2023-01-04T17:59:45.266Z,75.10
2023-01-04T18:02:51.307Z,74.59
2023-01-04T18:06:24.364Z,75.22
2023-01-04T18:09:28.052Z,74.87
2023-01-04T18:12:36.127Z,75.32
2023-01-04T18:15:55.003Z,75.32
2023-01-04T18:19:09.408Z,75.43
2023-01-04T18:22:15.591Z,75.80
2023-01-04T18:25:25.221Z,75.29
2023-01-04T18:28:31.591Z,75.04
2023-01-04T18:31:38.915Z,75.20
2023-01-04T18:34:45.316Z,75.29
2023-01-04T18:37:52.303Z,74.23
2023-01-04T18:41:01.014Z,74.39
2023-01-04T18:44:31.643Z,73.94
2023-01-04T18:47:34.994Z,73.65
2023-01-04T18:50:41.921Z,73.01
2023-01-04T18:53:48.090Z,72.61
2023-01-04T18:57:00.965Z,72.98
2023-01-04T19:00:08.903Z,72.73
2023-01-04T19:03:18.623Z,72.75
2023-01-04T19:06:27.121Z,72.52
2023-01-04T19:09:34.392Z,72.15
2023-01-04T19:12:43.380Z,72.59
2023-01-04T19:15:50.463Z,72.43
2023-01-04T19:18:57.799Z,72.64
2023-01-04T19:22:04.854Z,72.43
2023-01-04T19:25:11.413Z,72.87
2023-01-04T19:28:21.035Z,72.78
2023-01-04T19:31:27.054Z,72.90
2023-01-04T19:34:33.989Z,72.46
2023-01-04T19:37:39.969Z,72.66
2023-01-04T19:40:46.996Z,72.67
2023-01-04T19:43:55.600Z,72.98
2023-01-04T19:47:02.693Z,72.86
2023-01-04T19:50:10.899Z,73.13
2023-01-04T19:53:18.109Z,73.00
2023-01-04T19:56:28.583Z,72.79
2023-01-04T19:59:38.088Z,72.22
2023-01-04T20:02:44.857Z,72.69
2023-01-04T20:05:52.026Z,72.99
2023-01-04T20:08:58.990Z,72.90
2023-01-04T20:12:06.510Z,72.78
2023-01-04T20:15:16.310Z,72.80
2023-01-04T20:18:24.197Z,72.64
2023-01-04T20:21:30.449Z,72.58
2023-01-04T20:24:37.431Z,72.68
2023-01-04T20:27:43.700Z,72.93
2023-01-04T20:31:06.116Z,72.84
2023-01-04T20:34:12.475Z,73.22
2023-01-04T20:37:19.499Z,73.44
2023-01-04T20:40:25.784Z,73.10
2023-01-04T20:43:37.279Z,73.50
2023-01-04T20:46:48.240Z,73.19
2023-01-04T20:49:55.485Z,73.21
2023-01-04T20:53:01.685Z,73.58
2023-01-04T20:56:11.619Z,73.88
2023-01-04T20:59:17.979Z,74.02
2023-01-04T21:02:27.761Z,74.09
2023-01-04T21:05:37.477Z,74.02
2023-01-04T21:08:46.812Z,74.01
2023-01-04T21:11:55.745Z,73.90
2023-01-04T21:15:02.790Z,74.04
2023-01-04T21:18:12.815Z,75.03
2023-01-04T21:21:22.114Z,75.08
2023-01-04T21:24:28.257Z,75.59
2023-01-04T21:27:35.938Z,74.83
2023-01-04T21:30:43.850Z,75.26
2023-01-04T21:33:54.918Z,75.24
2023-01-04T21:37:01.060Z,75.60
2023-01-04T21:40:09.974Z,75.42
2023-01-04T21:43:21.072Z,75.13
2023-01-04T21:46:29.766Z,74.75
2023-01-04T21:49:44.048Z,75.09
2023-01-04T21:52:51.126Z,74.42
2023-01-04T21:56:02.295Z,75.01
2023-01-04T21:59:09.129Z,75.21
2023-01-04T22:02:21.033Z,75.75
2023-01-04T22:05:30.744Z,76.14
2023-01-04T22:08:38.432Z,77.56
2023-01-04T22:11:46.107Z,77.38
2023-01-04T22:14:52.127Z,78.10
2023-01-04T22:17:58.984Z,77.95
2023-01-04T22:21:11.853Z,78.49
2023-01-04T22:24:19.470Z,78.13
2023-01-04T22:27:25.530Z,78.22
2023-01-04T22:30:32.613Z,77.99
2023-01-04T22:33:40.033Z,77.96
2023-01-04T22:36:49.573Z,78.08
2023-01-04T22:39:55.568Z,78.41
2023-01-04T22:43:02.397Z,78.60
2023-01-04T22:46:13.448Z,79.10
2023-01-04T22:49:20.365Z,79.23
2023-01-04T22:52:29.076Z,79.56
2023-01-04T22:56:08.904Z,79.83
2023-01-04T22:59:02.209Z,80.26
2023-01-04T23:02:09.376Z,80.62
2023-01-04T23:05:15.637Z,80.48
2023-01-04T23:08:25.185Z,81.00
2023-01-04T23:11:35.452Z,81.18
2023-01-04T23:14:42.411Z,81.51
2023-01-04T23:17:48.611Z,80.71
2023-01-04T23:20:58.846Z,80.97
2023-01-04T23:24:08.456Z,80.52
2023-01-04T23:27:15.274Z,80.55
2023-01-04T23:30:21.794Z,80.18
2023-01-04T23:33:33.969Z,79.75
2023-01-04T23:36:45.106Z,79.58
2023-01-04T23:39:55.442Z,79.64
2023-01-04T23:43:01.705Z,79.81
2023-01-04T23:49:16.211Z,80.13
2023-01-04T23:52:23.363Z,79.54
2023-01-04T23:55:32.094Z,79.36
2023-01-04T23:58:38.944Z,79.50
